Time;durP1;ratioP1;P1;durP2;ratioP2;P2;SDS_P1;SDS_P2;PMS_P1;PMS_P2;Temp;Humidity;BMP_temperature;BMP_pressure;BME280_temperature;BME280_humidity;BME280_pressure;Samples;Min_cycle;Max_cycle;Signal;HPM_P1;HPM_P2
2022/10/08 00:01:29;;;;;;;8.95;3.28;;;;;;;12.52;100.00;101371.41;4917925;29;20062;-76
2022/10/08 00:03:57;;;;;;;12.68;3.22;;;;;;;12.45;100.00;101381.94;4889072;29;20048;-76
2022/10/08 00:06:31;;;;;;;9.98;3.13;;;;;;;12.41;100.00;101389.88;4908021;29;20059;-76
2022/10/08 00:09:03;;;;;;;10.85;3.40;;;;;;;12.35;100.00;101395.13;4901452;29;20325;-76
2022/10/08 00:11:35;;;;;;;10.23;2.83;;;;;;;12.30;100.00;101392.44;4931966;29;20059;-76
2022/10/08 00:14:04;;;;;;;12.55;4.47;;;;;;;12.26;100.00;101390.69;4905753;29;20586;-75
2022/10/08 00:16:35;;;;;;;9.40;3.55;;;;;;;12.22;100.00;101388.91;4885724;29;20047;-75
2022/10/08 00:19:12;;;;;;;11.07;4.20;;;;;;;12.19;100.00;101388.88;4906018;29;20275;-75
2022/10/08 00:21:43;;;;;;;13.63;4.68;;;;;;;12.14;100.00;101398.56;4904065;29;20417;-75
2022/10/08 00:24:15;;;;;;;10.27;4.10;;;;;;;12.11;100.00;101386.19;4914325;29;20048;-75
2022/10/08 00:26:44;;;;;;;11.93;3.88;;;;;;;12.07;100.00;101387.94;4925702;29;20059;-75
2022/10/08 00:29:18;;;;;;;15.00;4.38;;;;;;;12.05;100.00;101387.03;4900939;29;20078;-75
2022/10/08 00:31:48;;;;;;;10.70;4.20;;;;;;;12.04;100.00;101387.94;4907324;29;20056;-75
2022/10/08 00:34:20;;;;;;;17.40;5.03;;;;;;;12.02;100.00;101383.50;4924457;29;20048;-75
2022/10/08 00:36:51;;;;;;;10.93;4.10;;;;;;;12.01;100.00;101368.53;4896116;29;20516;-75
2022/10/08 00:39:22;;;;;;;10.25;3.55;;;;;;;12.01;100.00;101381.75;4895593;29;20074;-76
2022/10/08 00:41:51;;;;;;;;;;;;;;;12.00;100.00;101383.50;4930682;29;20063;-76
2022/10/08 00:44:52;;;;;;;14.75;4.18;;;;;;;11.98;100.00;101377.31;4925369;29;19923;-75
2022/10/08 00:47:32;;;;;;;12.45;3.97;;;;;;;11.96;100.00;101371.13;4917082;29;20044;-75
2022/10/08 00:50:31;;;;;;;9.30;3.53;;;;;;;11.95;100.00;101376.44;4910002;29;20417;-75
2022/10/08 00:53:04;;;;;;;11.38;3.60;;;;;;;11.92;100.00;101364.06;4893641;29;20043;-75
2022/10/08 00:55:33;;;;;;;13.55;3.25;;;;;;;11.91;100.00;101372.91;4928030;29;20055;-76
2022/10/08 00:58:10;;;;;;;8.30;3.50;;;;;;;11.90;100.00;101366.69;4909875;29;20067;-75
2022/10/08 01:00:38;;;;;;;10.32;3.28;;;;;;;11.90;100.00;101371.97;4928326;29;20781;-75
2022/10/08 01:03:06;;;;;;;8.85;3.75;;;;;;;11.90;100.00;101366.69;4918820;29;20051;-75
2022/10/08 01:05:53;;;;;;;9.75;3.10;;;;;;;11.90;100.00;101357.91;4910999;29;20095;-75
2022/10/08 01:08:48;;;;;;;10.80;3.78;;;;;;;11.89;100.00;101351.75;4887437;29;20756;-75
2022/10/08 01:11:16;;;;;;;10.25;3.45;;;;;;;11.90;100.00;101357.91;4893453;29;20058;-75
2022/10/08 01:14:03;;;;;;;12.55;3.85;;;;;;;11.89;100.00;101353.47;4910208;29;20052;-75
2022/10/08 01:16:49;;;;;;;9.75;3.33;;;;;;;11.88;100.00;101364.91;4909420;29;20735;-77
2022/10/08 01:19:42;;;;;;;12.82;3.47;;;;;;;11.87;100.00;101371.03;4899774;29;20035;-75
2022/10/08 01:22:44;;;;;;;10.95;3.38;;;;;;;11.85;100.00;101367.50;4906875;29;20059;-75
2022/10/08 01:25:33;;;;;;;10.30;3.03;;;;;;;11.84;100.00;101374.56;4872373;29;20240;-75
2022/10/08 01:28:13;;;;;;;12.50;3.33;;;;;;;11.81;100.00;101386.84;4909611;29;20501;-75
2022/10/08 01:30:51;;;;;;;9.60;3.20;;;;;;;11.81;100.00;101381.56;4926852;29;20047;-75
2022/10/08 01:33:49;;;;;;;11.85;3.40;;;;;;;11.80;100.00;101379.81;4900075;29;20675;-76
2022/10/08 01:36:20;;;;;;;7.57;3.08;;;;;;;11.80;100.00;101378.06;4918134;29;20449;-75
2022/10/08 01:38:56;;;;;;;8.27;2.97;;;;;;;11.80;100.00;101369.28;4893181;29;20043;-75
2022/10/08 01:41:28;;;;;;;6.15;3.38;;;;;;;11.81;100.00;101381.56;4890090;29;20610;-76
2022/10/08 01:44:14;;;;;;;11.10;3.38;;;;;;;11.80;100.00;101371.91;4927033;29;20070;-76
2022/10/08 01:46:45;;;;;;;9.82;3.35;;;;;;;11.79;100.00;101364.84;4911126;29;20039;-76
2022/10/08 01:49:20;;;;;;;8.43;2.30;;;;;;;11.78;100.00;101366.63;4899819;29;20047;-76
2022/10/08 01:52:03;;;;;;;10.65;2.70;;;;;;;11.78;100.00;101366.63;4911666;29;20052;-76
2022/10/08 01:54:32;;;;;;;13.13;2.75;;;;;;;11.77;100.00;101363.97;4926218;29;20174;-76
2022/10/08 01:57:04;;;;;;;11.63;3.40;;;;;;;11.78;100.00;101371.03;4864046;29;20048;-75
2022/10/08 01:59:38;;;;;;;10.85;2.60;;;;;;;11.76;100.00;101364.81;4880918;29;20051;-75
2022/10/08 02:02:19;;;;;;;4.97;2.10;;;;;;;11.74;100.00;101371.84;4924619;29;20056;-75
2022/10/08 02:04:52;;;;;;;4.40;2.38;;;;;;;11.70;100.00;101377.13;4909490;29;20051;-76
2022/10/08 02:07:30;;;;;;;7.75;2.42;;;;;;;11.68;100.00;101367.41;4899970;29;20263;-76
2022/10/08 02:10:17;;;;;;;7.03;2.42;;;;;;;11.63;100.00;101375.31;4897086;29;20363;-76
2022/10/08 02:12:45;;;;;;;8.90;2.90;;;;;;;11.58;100.00;101371.75;4909161;29;20039;-76
2022/10/08 02:15:21;;;;;;;8.80;2.20;;;;;;;11.55;100.00;101374.38;4921697;29;20043;-75
2022/10/08 02:18:08;;;;;;;7.13;1.90;;;;;;;11.51;100.00;101377.84;4916167;29;20058;-76
2022/10/08 02:20:41;;;;;;;9.95;2.45;;;;;;;11.47;100.00;101392.78;4903684;29;20043;-75
2022/10/08 02:23:28;;;;;;;10.10;2.13;;;;;;;11.42;100.00;101377.78;4907365;29;20094;-75
2022/10/08 02:26:03;;;;;;;7.20;2.00;;;;;;;11.38;100.00;101373.34;4900509;29;20510;-76
2022/10/08 02:28:35;;;;;;;7.07;2.63;;;;;;;11.35;100.00;101376.84;4913149;29;20222;-76
2022/10/08 02:31:22;;;;;;;6.78;2.40;;;;;;;11.32;100.00;101382.09;4908468;29;20056;-75
2022/10/08 02:34:14;;;;;;;10.70;2.22;;;;;;;11.28;100.00;101386.44;4916256;29;20413;-75
2022/10/08 02:36:48;;;;;;;6.53;2.03;;;;;;;11.23;100.00;101385.53;4906136;29;20054;-76
2022/10/08 02:39:19;;;;;;;3.30;2.33;;;;;;;11.21;100.00;101383.75;4913751;29;20194;-75
2022/10/08 02:41:58;;;;;;;7.57;2.58;;;;;;;11.18;100.00;101383.72;4893056;29;20414;-75
2022/10/08 02:44:39;;;;;;;8.73;2.40;;;;;;;11.14;100.00;101382.81;4907306;29;20039;-75
2022/10/08 02:47:12;;;;;;;8.98;2.33;;;;;;;11.12;100.00;101388.06;4923892;29;20056;-75
2022/10/08 02:49:47;;;;;;;6.88;2.40;;;;;;;11.10;100.00;101381.03;4927787;29;20366;-76
2022/10/08 02:52:19;;;;;;;7.90;2.28;;;;;;;11.08;100.00;101385.41;4898388;29;20167;-75
2022/10/08 02:54:49;;;;;;;8.30;2.65;;;;;;;11.04;100.00;101391.50;4928626;29;20055;-75
2022/10/08 02:57:31;;;;;;;6.40;2.20;;;;;;;11.01;100.00;101392.34;4874352;29;20074;-75
2022/10/08 02:59:59;;;;;;;8.45;2.30;;;;;;;10.99;100.00;101396.72;4905937;29;20051;-75
2022/10/08 03:02:42;;;;;;;8.65;2.40;;;;;;;10.98;100.00;101399.34;4924765;29;20271;-75
2022/10/08 03:05:16;;;;;;;29.48;4.60;;;;;;;10.95;100.00;101401.97;4913054;29;20060;-75
2022/10/08 03:07:49;;;;;;;6.15;2.33;;;;;;;10.93;100.00;101400.19;4905799;29;20047;-75
2022/10/08 03:10:18;;;;;;;9.10;2.17;;;;;;;10.93;100.00;101407.22;4905882;29;20152;-75
2022/10/08 03:12:47;;;;;;;6.80;2.55;;;;;;;10.90;100.00;101410.69;4893481;29;20042;-76
2022/10/08 03:15:15;;;;;;;4.97;2.55;;;;;;;10.90;100.00;101409.81;4841369;29;20433;-76
2022/10/08 03:17:47;;;;;;;4.75;2.25;;;;;;;10.87;100.00;101400.13;4894496;29;20512;-76
2022/10/08 03:20:15;;;;;;;6.75;2.33;;;;;;;10.85;100.00;101403.59;4904844;29;20043;-77
2022/10/08 03:22:43;;;;;;;6.03;2.10;;;;;;;10.84;100.00;101404.47;4893278;29;20051;-75
2022/10/08 03:25:12;;;;;;;9.68;2.38;;;;;;;10.81;100.00;101407.06;4915406;29;20262;-77
2022/10/08 03:27:40;;;;;;;9.40;2.35;;;;;;;10.79;100.00;101414.09;4908389;29;20047;-76
2022/10/08 03:30:10;;;;;;;6.43;2.88;;;;;;;10.77;100.00;101414.06;4888287;29;20043;-76
2022/10/08 03:32:38;;;;;;;6.65;2.13;;;;;;;10.75;100.00;101414.91;4926193;29;20059;-76
2022/10/08 03:35:06;;;;;;;10.50;3.05;;;;;;;10.72;100.00;101418.41;4890754;29;20405;-77
2022/10/08 03:37:35;;;;;;;7.65;2.20;;;;;;;10.70;100.00;101422.78;4907925;29;20512;-75
2022/10/08 03:40:03;;;;;;;11.13;2.92;;;;;;;10.68;100.00;101421.84;4901001;29;20051;-75
2022/10/08 03:42:31;;;;;;;4.85;2.10;;;;;;;10.65;100.00;101419.22;4923029;29;20171;-75
2022/10/08 03:45:01;;;;;;;7.30;2.47;;;;;;;10.64;100.00;101420.06;4858938;29;20055;-75
2022/10/08 03:47:29;;;;;;;5.88;1.90;;;;;;;10.62;100.00;101424.44;4891864;29;20056;-76
2022/10/08 03:49:57;;;;;;;11.15;2.22;;;;;;;10.60;100.00;101432.31;4908642;29;20043;-75
2022/10/08 03:52:25;;;;;;;5.43;2.40;;;;;;;10.59;100.00;101438.47;4906634;29;20607;-77
2022/10/08 03:54:54;;;;;;;7.53;3.45;;;;;;;10.58;100.00;101436.69;4895199;29;20043;-76
2022/10/08 03:57:22;;;;;;;6.85;2.42;;;;;;;10.57;100.00;101431.38;4889061;29;20117;-75
2022/10/08 03:59:50;;;;;;;8.10;2.30;;;;;;;10.54;100.00;101450.69;4894504;29;20047;-76
2022/10/08 04:02:19;;;;;;;7.63;2.63;;;;;;;10.52;100.00;101437.47;4854987;29;20069;-76
2022/10/08 04:04:47;;;;;;;8.95;2.67;;;;;;;10.50;100.00;101439.22;4892221;29;20397;-75
2022/10/08 04:07:15;;;;;;;10.73;3.20;;;;;;;10.49;100.00;101439.19;4889169;29;20046;-76
2022/10/08 04:09:44;;;;;;;6.15;2.70;;;;;;;10.47;100.00;101436.56;4888262;29;20047;-76
2022/10/08 04:12:12;;;;;;;7.65;3.25;;;;;;;10.46;100.00;101431.28;4894117;29;20548;-75
2022/10/08 04:14:41;;;;;;;10.43;3.15;;;;;;;10.44;100.00;101430.38;4928179;29;20527;-75
2022/10/08 04:17:10;;;;;;;10.45;3.03;;;;;;;10.42;100.00;101429.47;4861962;29;20036;-77
2022/10/08 04:19:38;;;;;;;7.68;2.60;;;;;;;10.41;100.00;101436.47;4879855;29;20494;-75
2022/10/08 04:22:06;;;;;;;8.98;2.67;;;;;;;10.38;100.00;101433.81;4918821;29;20054;-75
2022/10/08 04:24:34;;;;;;;11.50;3.08;;;;;;;10.39;100.00;101438.19;4886780;29;20047;-76
2022/10/08 04:27:03;;;;;;;10.60;4.00;;;;;;;10.38;100.00;101438.16;4897407;29;20055;-76
2022/10/08 04:29:31;;;;;;;8.32;2.75;;;;;;;10.38;100.00;101439.06;4898964;29;20182;-75
2022/10/08 04:31:59;;;;;;;13.13;3.40;;;;;;;10.39;100.00;101448.72;4903944;29;20457;-75
2022/10/08 04:34:28;;;;;;;7.53;2.80;;;;;;;10.38;100.00;101444.34;4879515;29;20617;-76
2022/10/08 04:36:57;;;;;;;7.82;2.90;;;;;;;10.37;100.00;101447.81;4930516;29;20065;-76
2022/10/08 04:39:25;;;;;;;5.90;2.95;;;;;;;10.37;100.00;101452.22;4890579;29;20044;-76
2022/10/08 04:41:53;;;;;;;14.07;2.92;;;;;;;10.37;100.00;101454.84;4909173;29;20055;-76
2022/10/08 04:44:21;;;;;;;11.82;3.42;;;;;;;10.37;100.00;101449.59;4912276;29;20070;-76
2022/10/08 04:46:50;;;;;;;13.45;3.95;;;;;;;10.36;100.00;101453.97;4898594;29;20516;-76
2022/10/08 04:49:18;;;;;;;14.20;3.38;;;;;;;10.37;100.00;101452.22;4926560;29;20449;-76
2022/10/08 04:51:46;;;;;;;8.70;3.40;;;;;;;10.36;100.00;101455.69;4915250;29;20043;-76
2022/10/08 04:54:15;;;;;;;13.90;3.42;;;;;;;10.34;100.00;101453.94;4922555;29;20055;-76
2022/10/08 04:56:43;;;;;;;14.75;4.38;;;;;;;10.33;100.00;101452.16;4922634;29;20043;-75
2022/10/08 04:59:11;;;;;;;10.35;3.17;;;;;;;10.34;100.00;101455.72;4910095;29;20050;-76
2022/10/08 05:01:40;;;;;;;9.02;3.10;;;;;;;10.32;100.00;101453.03;4926781;29;20405;-76
2022/10/08 05:04:08;;;;;;;11.98;3.40;;;;;;;10.31;100.00;101456.53;4893212;29;20405;-76
2022/10/08 05:06:36;;;;;;;10.15;3.10;;;;;;;10.32;100.00;101457.41;4932265;29;20059;-75
2022/10/08 05:09:05;;;;;;;14.73;3.88;;;;;;;10.30;100.00;101459.09;4929148;29;20059;-76
2022/10/08 05:11:33;;;;;;;7.00;3.28;;;;;;;10.28;100.00;101468.72;4909795;29;20059;-75
2022/10/08 05:14:01;;;;;;;12.63;3.10;;;;;;;10.28;100.00;101463.47;4913430;29;20052;-75
2022/10/08 05:16:30;;;;;;;9.07;3.28;;;;;;;10.26;100.00;101473.97;4910221;29;20155;-75
2022/10/08 05:18:59;;;;;;;8.63;3.30;;;;;;;10.25;100.00;101473.97;4861317;29;20505;-76
2022/10/08 05:21:28;;;;;;;15.05;3.25;;;;;;;10.24;100.00;101478.34;4909711;29;20036;-76
2022/10/08 05:24:05;;;;;;;12.13;3.20;;;;;;;10.22;100.00;101479.19;4926481;28;20051;-78
2022/10/08 05:26:36;;;;;;;14.68;4.35;;;;;;;10.20;100.00;101483.56;4913361;29;20079;-75
2022/10/08 05:29:27;;;;;;;10.13;3.05;;;;;;;10.19;100.00;101492.31;4918491;29;20273;-75
2022/10/08 05:31:55;;;;;;;9.80;2.90;;;;;;;10.18;100.00;101501.09;4917767;29;20058;-76
2022/10/08 05:34:24;;;;;;;9.10;2.92;;;;;;;10.15;100.00;101499.28;4898396;28;20579;-76
2022/10/08 05:36:52;;;;;;;13.60;3.80;;;;;;;10.14;100.00;101505.41;4915698;29;20056;-76
2022/10/08 05:39:21;;;;;;;13.00;3.00;;;;;;;10.13;100.00;101506.25;4909554;29;20736;-76
2022/10/08 05:41:49;;;;;;;9.52;2.75;;;;;;;10.12;100.00;101505.38;4920602;29;20052;-76
2022/10/08 05:44:17;;;;;;;12.32;2.80;;;;;;;10.10;100.00;101501.84;4895786;29;20325;-75
2022/10/08 05:46:46;;;;;;;11.57;2.92;;;;;;;10.07;100.00;101509.69;4929580;28;20040;-75
2022/10/08 05:49:20;;;;;;;11.90;2.95;;;;;;;10.06;100.00;101515.84;4874477;29;20098;-76
2022/10/08 05:51:49;;;;;;;15.93;3.50;;;;;;;10.06;100.00;101520.22;4917751;29;20421;-75
2022/10/08 05:54:18;;;;;;;9.77;2.58;;;;;;;10.04;100.00;101519.31;4926360;28;20342;-74
2022/10/08 05:56:46;;;;;;;14.80;2.97;;;;;;;10.02;100.00;101516.66;4905877;29;20036;-76
2022/10/08 05:59:19;;;;;;;14.85;4.82;;;;;;;10.04;100.00;101528.09;4907467;29;20734;-76
2022/10/08 06:01:48;;;;;;;12.30;3.13;;;;;;;10.03;100.00;101521.03;4920391;29;20044;-76
2022/10/08 06:04:19;;;;;;;8.57;3.00;;;;;;;10.01;100.00;101525.41;4913330;29;20705;-76
2022/10/08 06:06:50;;;;;;;10.48;2.75;;;;;;;10.02;100.00;101531.53;4895232;29;20036;-78
2022/10/08 06:09:19;;;;;;;14.20;4.05;;;;;;;10.02;100.00;101534.16;4877193;29;20051;-78
2022/10/08 06:11:51;;;;;;;15.43;3.00;;;;;;;10.02;100.00;101532.44;4890334;29;20054;-78
2022/10/08 06:14:20;;;;;;;13.48;3.03;;;;;;;10.02;100.00;101534.16;4901832;29;20023;-78
2022/10/08 06:16:48;;;;;;;13.35;3.25;;;;;;;10.03;100.00;101541.22;4885047;29;20027;-78
2022/10/08 06:19:17;;;;;;;14.88;3.13;;;;;;;10.02;100.00;101540.34;4929083;29;20047;-78
2022/10/08 06:21:45;;;;;;;16.52;3.50;;;;;;;10.05;100.00;101555.28;4889939;29;20028;-78
2022/10/08 06:24:13;;;;;;;12.32;3.22;;;;;;;10.06;100.00;101557.09;4896607;29;20056;-77
2022/10/08 06:26:43;;;;;;;15.07;2.90;;;;;;;10.09;100.00;101549.22;4924995;29;20048;-78
2022/10/08 06:29:15;;;;;;;13.10;3.95;;;;;;;10.11;100.00;101552.75;4920958;29;20071;-79
2022/10/08 06:31:43;;;;;;;10.63;3.35;;;;;;;10.12;100.00;101565.97;4907329;29;20497;-78
2022/10/08 06:34:12;;;;;;;12.43;3.08;;;;;;;10.15;100.00;101575.66;4898977;29;20052;-78
2022/10/08 06:36:41;;;;;;;15.93;3.33;;;;;;;10.15;100.00;101573.91;4902216;29;20044;-78
2022/10/08 06:39:12;;;;;;;15.18;3.83;;;;;;;10.17;100.00;101573.03;4918147;29;20059;-79
2022/10/08 06:41:41;;;;;;;15.98;3.50;;;;;;;10.18;100.00;101580.97;4915113;29;20051;-77
2022/10/08 06:44:12;;;;;;;11.50;2.95;;;;;;;10.19;100.00;101579.22;4890115;29;20040;-80
2022/10/08 06:46:41;;;;;;;8.23;3.10;;;;;;;10.20;100.00;101587.16;4897878;29;20509;-77
2022/10/08 06:49:10;;;;;;;10.43;3.33;;;;;;;10.24;100.00;101590.72;4915139;29;20044;-78
2022/10/08 06:51:38;;;;;;;15.48;3.13;;;;;;;10.26;100.00;101603.03;4904570;29;20059;-78
2022/10/08 06:54:08;;;;;;;11.20;3.20;;;;;;;10.29;100.00;101591.69;4868474;29;20066;-77
2022/10/08 06:56:37;;;;;;;16.10;3.30;;;;;;;10.32;100.00;101604.94;4917005;29;20051;-79
2022/10/08 06:59:06;;;;;;;13.20;3.60;;;;;;;10.37;100.00;101597.13;4893440;29;20413;-78
2022/10/08 07:01:35;;;;;;;16.33;3.08;;;;;;;10.43;100.00;101620.91;4921488;29;20048;-78
2022/10/08 07:04:05;;;;;;;10.02;2.80;;;;;;;10.48;100.00;101617.50;4886719;29;20040;-78
2022/10/08 07:06:34;;;;;;;11.93;2.70;;;;;;;10.56;100.00;101624.66;4908697;29;20047;-79
2022/10/08 07:09:03;;;;;;;12.50;2.80;;;;;;;10.62;100.00;101625.63;4875227;29;20040;-79
2022/10/08 07:11:34;;;;;;;6.50;2.20;;;;;;;10.73;100.00;101625.78;4909580;29;20044;-78
2022/10/08 07:14:03;;;;;;;16.45;3.08;;;;;;;10.83;100.00;101638.25;4877905;29;20058;-78
2022/10/08 07:16:31;;;;;;;11.10;2.42;;;;;;;10.92;100.00;101643.63;4870686;29;20151;-78
2022/10/08 07:19:00;;;;;;;7.22;2.25;;;;;;;11.02;100.00;101641.13;4886080;29;20532;-79
2022/10/08 07:21:29;;;;;;;15.35;3.42;;;;;;;11.16;100.00;101643.97;4911457;29;20036;-78
2022/10/08 07:23:59;;;;;;;9.80;2.20;;;;;;;11.28;100.00;101645.00;4856743;29;20055;-78
2022/10/08 07:26:32;;;;;;;5.68;1.83;;;;;;;11.38;100.00;101642.50;4884263;29;20082;-78
2022/10/08 07:29:04;;;;;;;6.47;2.35;;;;;;;11.48;100.00;101649.66;4912572;29;20059;-79
2022/10/08 07:31:35;;;;;;;8.85;2.10;;;;;;;11.57;100.00;101655.06;4920077;29;20039;-78
2022/10/08 07:34:07;;;;;;;10.95;2.13;;;;;;;11.67;100.00;101659.56;4911235;29;20495;-79
2022/10/08 07:36:37;;;;;;;6.78;1.67;;;;;;;11.75;100.00;101666.69;4898513;29;20401;-78
2022/10/08 07:39:12;;;;;;;12.63;2.13;;;;;;;11.83;100.00;101672.94;4897804;29;20055;-79
2022/10/08 07:41:41;;;;;;;8.85;2.08;;;;;;;11.93;100.00;101679.25;4927810;29;20047;-78
2022/10/08 07:44:10;;;;;;;6.75;1.80;;;;;;;12.06;100.00;101681.16;4910519;29;20039;-79
2022/10/08 07:46:45;;;;;;;5.00;1.63;;;;;;;12.22;100.00;101684.84;4913606;29;20405;-78
2022/10/08 07:49:16;;;;;;;7.00;1.90;;;;;;;12.28;100.00;101685.78;4887097;29;20040;-78
2022/10/08 07:51:44;;;;;;;7.75;1.70;;;;;;;12.33;100.00;101696.41;4898063;29;20036;-78
2022/10/08 07:54:17;;;;;;;7.47;1.67;;;;;;;12.36;100.00;101700.81;4880124;29;20064;-78
2022/10/08 07:56:46;;;;;;;5.97;1.50;;;;;;;12.35;100.00;101705.22;4913090;29;20047;-77
2022/10/08 07:59:14;;;;;;;8.20;1.80;;;;;;;12.41;100.00;101700.00;4894659;29;20243;-78
2022/10/08 08:01:44;;;;;;;10.13;1.58;;;;;;;12.62;100.00;101706.34;4889197;29;20031;-79
2022/10/08 08:04:13;;;;;;;10.67;2.50;;;;;;;12.77;100.00;101711.75;4901426;29;20265;-77
2022/10/08 08:06:51;;;;;;;6.20;1.55;;;;;;;12.87;100.00;101718.91;4898924;29;20051;-77
2022/10/08 08:09:20;;;;;;;9.15;1.95;;;;;;;12.96;100.00;101730.44;4887279;29;20052;-78
2022/10/08 08:11:48;;;;;;;5.85;1.90;;;;;;;13.06;100.00;101729.59;4880231;29;20051;-78
2022/10/08 08:14:18;;;;;;;9.05;2.17;;;;;;;13.25;100.00;101726.22;4924082;29;20059;-77
2022/10/08 08:16:47;;;;;;;4.05;1.60;;;;;;;13.59;100.00;101726.44;4876060;29;20044;-78
2022/10/08 08:19:15;;;;;;;4.95;1.45;;;;;;;14.01;100.00;101743.38;4859771;29;20056;-78
2022/10/08 08:21:44;;;;;;;9.00;1.70;;;;;;;14.35;100.00;101742.59;4874482;29;20510;-78
2022/10/08 08:24:14;;;;;;;4.60;1.85;;;;;;;14.42;100.00;101757.59;4899803;29;20039;-78
2022/10/08 08:26:42;;;;;;;4.77;1.90;;;;;;;14.36;100.00;101755.81;4863756;29;20326;-78
2022/10/08 08:29:16;;;;;;;7.85;2.10;;;;;;;14.26;100.00;101767.31;4932195;29;20056;-78
2022/10/08 08:31:47;;;;;;;6.97;1.60;;;;;;;14.09;100.00;101766.38;4895182;29;20405;-78
2022/10/08 08:34:17;;;;;;;;;;;;;;;13.89;100.00;101767.16;4884363;29;20050;-79
2022/10/08 08:36:50;;;;;;;8.15;1.38;;;;;;;13.74;100.00;101765.38;4914023;29;19934;-78
2022/10/08 08:39:24;;;;;;;9.35;2.03;;;;;;;13.81;100.00;101775.09;4905855;29;20516;-78
2022/10/08 08:42:03;;;;;;;5.75;1.60;;;;;;;14.05;100.00;101768.13;4860225;29;20524;-78
2022/10/08 08:44:41;;;;;;;10.82;1.65;;;;;;;14.26;100.00;101779.69;4911308;29;20055;-78
2022/10/08 08:47:16;;;;;;;7.32;1.50;;;;;;;14.40;100.00;101776.19;4928852;29;20066;-79
2022/10/08 08:50:01;;;;;;;7.93;1.45;;;;;;;14.56;100.00;101777.09;4901387;29;20059;-79
2022/10/08 08:52:36;;;;;;;4.10;1.63;;;;;;;14.72;100.00;101785.97;4902544;29;20035;-81
2022/10/08 08:55:16;;;;;;;5.07;1.33;;;;;;;14.72;100.00;101803.66;4876682;29;20047;-82
2022/10/08 08:57:50;;;;;;;8.35;1.30;;;;;;;14.47;100.00;101800.94;4899840;29;20051;-78
2022/10/08 09:00:23;;;;;;;4.68;1.20;;;;;;;14.08;100.00;101785.78;4908902;29;20224;-78
2022/10/08 09:02:56;;;;;;;4.57;1.10;;;;;;;13.75;100.00;101785.66;4915313;29;20040;-78
2022/10/08 09:05:29;;;;;;;1.77;0.88;;;;;;;13.44;100.00;101790.78;4910822;29;20572;-78
2022/10/08 09:08:13;;;;;;;4.28;1.00;;;;;;;13.14;100.00;101791.44;4915028;29;20066;-77
2022/10/08 09:10:44;;;;;;;4.53;1.35;;;;;;;12.88;100.00;101799.16;4918497;29;20297;-77
2022/10/08 09:13:18;;;;;;;6.95;1.63;;;;;;;12.78;100.00;101798.19;4887802;29;20036;-78
2022/10/08 09:15:46;;;;;;;4.57;1.17;;;;;;;12.77;100.00;101798.16;4926366;29;20401;-77
2022/10/08 09:18:15;;;;;;;3.95;1.38;;;;;;;12.81;100.00;101805.25;4893390;29;20046;-77
2022/10/08 09:20:44;;;;;;;7.05;1.25;;;;;;;12.85;100.00;101807.03;4885726;29;20070;-77
2022/10/08 09:23:22;;;;;;;9.40;1.70;;;;;;;12.95;100.00;101810.66;4881815;29;20040;-78
2022/10/08 09:26:15;;;;;;;2.22;0.82;;;;;;;13.05;100.00;101810.75;4924599;28;20048;-77
2022/10/08 09:28:51;;;;;;;6.50;1.30;;;;;;;13.13;100.00;101809.94;4892935;29;20125;-78
2022/10/08 09:31:31;;;;;;;6.47;1.10;;;;;;;13.23;100.00;101814.41;4878376;29;20046;-78
2022/10/08 09:34:06;;;;;;;4.72;1.13;;;;;;;13.32;100.00;101806.56;4896586;29;20243;-77
2022/10/08 09:36:51;;;;;;;4.65;1.00;;;;;;;13.44;100.00;101813.75;4907761;29;20405;-77
2022/10/08 09:39:35;;;;;;;4.93;1.20;;;;;;;13.59;100.00;101810.28;4918125;29;20043;-78
2022/10/08 09:42:07;;;;;;;4.93;1.55;;;;;;;13.70;100.00;101810.34;4902760;29;20050;-78
2022/10/08 09:44:50;;;;;;;7.72;2.05;;;;;;;13.80;100.00;101825.44;4913233;29;20058;-78
2022/10/08 09:47:21;;;;;;;7.85;1.60;;;;;;;13.89;100.00;101822.81;4913956;29;20050;-78
2022/10/08 09:50:20;;;;;;;7.13;1.33;;;;;;;14.04;100.00;101822.00;4898240;29;20047;-78
2022/10/08 09:52:53;;;;;;;5.63;1.20;;;;;;;14.19;100.00;101822.06;4898579;29;20083;-77
2022/10/08 09:55:27;;;;;;;5.18;1.40;;;;;;;14.30;100.00;101832.72;4899880;29;20277;-79
2022/10/08 09:57:59;;;;;;;5.95;1.45;;;;;;;14.31;100.00;101833.59;4890559;29;20051;-78
2022/10/08 10:00:31;;;;;;;8.35;1.73;;;;;;;14.32;100.00;101843.31;4891977;29;20551;-77
2022/10/08 10:03:03;;;;;;;5.20;1.40;;;;;;;14.30;100.00;101843.31;4932450;28;20521;-77
2022/10/08 10:05:34;;;;;;;11.63;2.30;;;;;;;14.24;100.00;101853.91;4912720;29;20372;-78
2022/10/08 10:08:03;;;;;;;12.13;2.03;;;;;;;14.18;100.00;101852.13;4906941;29;20071;-78
2022/10/08 10:10:40;;;;;;;8.13;1.75;;;;;;;14.23;100.00;101849.47;4920102;29;20430;-78
2022/10/08 10:13:34;;;;;;;9.40;1.33;;;;;;;14.37;100.00;101849.53;4893682;29;20047;-79
2022/10/08 10:16:06;;;;;;;6.72;1.85;;;;;;;14.49;100.00;101859.28;4882926;29;20067;-79
2022/10/08 10:19:00;;;;;;;11.70;2.20;;;;;;;14.58;100.00;101838.13;4934491;29;20047;-79
2022/10/08 10:21:40;;;;;;;8.82;1.60;;;;;;;14.65;100.00;101855.84;4903106;29;20058;-78
2022/10/08 10:24:26;;;;;;;9.43;1.70;;;;;;;14.79;100.00;101854.09;4918882;29;20040;-79
2022/10/08 10:27:06;;;;;;;8.20;1.98;;;;;;;14.97;100.00;101853.25;4924526;29;20047;-80
2022/10/08 10:29:47;;;;;;;4.93;1.40;;;;;;;15.07;100.00;101854.13;4914767;29;20060;-79
2022/10/08 10:32:24;;;;;;;8.43;1.55;;;;;;;15.11;100.00;101870.94;4861113;29;20070;-79
2022/10/08 10:35:14;;;;;;;8.73;1.77;;;;;;;15.11;100.00;101866.53;4906348;29;20040;-79
2022/10/08 10:38:22;;;;;;;5.40;1.58;;;;;;;15.02;99.77;101875.34;4890424;29;20044;-78
2022/10/08 10:41:06;;;;;;;10.15;2.00;;;;;;;14.98;100.00;101875.34;4848190;29;20049;-78
2022/10/08 10:43:49;;;;;;;6.65;1.65;;;;;;;14.96;100.00;101872.69;4919987;29;20039;-79
2022/10/08 10:46:31;;;;;;;6.35;1.98;;;;;;;15.01;100.00;101875.38;4883788;29;20586;-78
2022/10/08 10:49:00;;;;;;;10.52;1.95;;;;;;;15.06;100.00;101881.53;4881621;29;20535;-81
2022/10/08 10:51:34;;;;;;;6.15;1.65;;;;;;;15.12;100.00;101888.63;4876191;29;20171;-79
2022/10/08 10:54:03;;;;;;;11.38;2.30;;;;;;;15.19;100.00;101888.63;4899997;29;20051;-80
2022/10/08 10:56:44;;;;;;;6.15;2.28;;;;;;;15.22;99.73;101893.09;4905520;29;20040;-80
2022/10/08 10:59:19;;;;;;;8.80;1.88;;;;;;;15.11;100.00;101898.38;4911278;29;20050;-80
2022/10/08 11:02:12;;;;;;;7.22;1.98;;;;;;;14.90;100.00;101903.66;4905457;29;20044;-80
2022/10/08 11:05:12;;;;;;;12.15;2.03;;;;;;;14.69;99.21;101909.78;4893713;29;20525;-80
2022/10/08 11:07:41;;;;;;;8.95;1.70;;;;;;;14.60;100.00;101908.00;4909252;29;20059;-79
2022/10/08 11:10:19;;;;;;;8.20;1.88;;;;;;;14.59;100.00;101915.06;4919209;29;20043;-79
2022/10/08 11:13:16;;;;;;;11.85;2.28;;;;;;;14.61;100.00;101913.31;4924807;29;20059;-79
2022/10/08 11:16:15;;;;;;;7.22;1.92;;;;;;;14.72;100.00;101905.38;4910396;29;20043;-79
2022/10/08 11:19:01;;;;;;;9.73;1.83;;;;;;;14.69;98.18;101910.69;4866582;29;20042;-78
2022/10/08 11:21:54;;;;;;;8.75;1.35;;;;;;;14.69;98.70;101909.78;4910326;29;20070;-79
2022/10/08 11:24:37;;;;;;;7.13;1.88;;;;;;;14.64;100.00;101915.06;4914817;29;20277;-80
2022/10/08 11:27:23;;;;;;;10.07;1.60;;;;;;;14.51;99.81;101926.50;4893645;29;20062;-78
2022/10/08 11:30:22;;;;;;;10.25;2.13;;;;;;;14.32;99.39;101934.34;4875370;29;20044;-79
2022/10/08 11:32:54;;;;;;;7.25;1.55;;;;;;;14.20;100.00;101937.84;4916950;28;20062;-78
2022/10/08 11:35:25;;;;;;;13.35;1.90;;;;;;;14.17;100.00;101937.81;4879581;29;20413;-78
2022/10/08 11:38:32;;;;;;;7.18;2.28;;;;;;;14.20;100.00;101943.13;4910448;29;20054;-79
2022/10/08 11:41:39;;;;;;;7.88;1.83;;;;;;;14.23;100.00;101948.47;4907743;29;20048;-78
2022/10/08 11:44:10;;;;;;;8.05;1.48;;;;;;;14.28;100.00;101945.81;4924070;29;20044;-78
2022/10/08 11:46:38;;;;;;;10.27;1.85;;;;;;;14.30;100.00;101941.41;4911477;29;20059;-81